Terminal Aerodrome Forecast
Issued by NWS

Home | Current Version | Previous Version | Text Only | Print | Product List | Glossary On
Versions: 1 2 3 4 5 6 7 8 9 10 11 12 13 14 15 16 17 18 19 20 21 22 23 24
000
FTUS43 KMQT 301000 AAB
TAFSAW
TAF AMD
KSAW 301023Z 3010/3106 35004KT P6SM FEW120
     FM301300 33006KT P6SM SCT120
     FM301600 29005KT P6SM VCSH BKN040
     FM302100 04005KT 6SM -SHRA BKN040
     FM310100 30005KT P6SM SCT070
      AMD LTD TO CLD VIS AND WIND TIL 301000=

USA.gov is the U.S. government's official web portal to all federal, state and local government web resources and services.